Time;durP1;ratioP1;P1;durP2;ratioP2;P2;SDS_P1;SDS_P2;PMS_P1;PMS_P2;Temp;Humidity;BMP_temperature;BMP_pressure;BME280_temperature;BME280_humidity;BME280_pressure;Samples;Min_cycle;Max_cycle;Signal;HPM_P1;HPM_P2
2021/08/10 00:00:39;;;;;;;2.40;2.00;;;16.20;99.90;;;;;;4996466;28;20184;-75
2021/08/10 00:03:05;;;;;;;3.47;1.73;;;16.20;99.90;;;;;;4996260;28;20580;-75
2021/08/10 00:05:31;;;;;;;5.60;2.40;;;16.20;99.90;;;;;;4995145;28;20184;-75
2021/08/10 00:07:56;;;;;;;2.77;2.17;;;16.10;99.90;;;;;;4996123;28;20195;-75
2021/08/10 00:10:22;;;;;;;2.40;2.20;;;16.10;99.90;;;;;;4996292;28;20175;-75
2021/08/10 00:12:48;;;;;;;3.87;2.43;;;16.00;99.90;;;;;;4981716;28;20200;-75
2021/08/10 00:15:14;;;;;;;2.43;1.80;;;16.00;99.90;;;;;;4979518;28;20175;-75
2021/08/10 00:17:40;;;;;;;2.37;2.07;;;16.00;99.90;;;;;;4996272;28;20631;-75
2021/08/10 00:20:07;;;;;;;3.60;2.07;;;15.90;99.90;;;;;;4996226;28;20176;-75
2021/08/10 00:22:33;;;;;;;2.37;2.10;;;15.90;99.90;;;;;;4992990;28;20252;-75
2021/08/10 00:24:58;;;;;;;4.67;2.10;;;15.90;99.90;;;;;;4989569;28;20262;-75
2021/08/10 00:27:24;;;;;;;2.43;2.17;;;15.80;99.90;;;;;;4994732;28;20195;-75
2021/08/10 00:29:49;;;;;;;2.77;2.30;;;15.80;99.90;;;;;;4995976;28;20211;-75
2021/08/10 00:32:15;;;;;;;3.13;2.20;;;15.80;99.90;;;;;;4996145;28;20168;-75
2021/08/10 00:34:41;;;;;;;3.33;2.30;;;15.60;99.90;;;;;;4995702;28;20215;-75
2021/08/10 00:37:07;;;;;;;2.30;2.10;;;15.60;99.90;;;;;;4995791;28;20546;-75
2021/08/10 00:39:34;;;;;;;4.70;2.40;;;15.50;99.90;;;;;;4994423;28;20185;-75
2021/08/10 00:42:00;;;;;;;2.50;2.30;;;15.60;99.90;;;;;;4995838;28;20181;-75
2021/08/10 00:44:26;;;;;;;2.83;2.30;;;15.60;99.90;;;;;;4995540;28;20281;-75
2021/08/10 00:46:52;;;;;;;4.60;2.10;;;15.50;99.90;;;;;;4995547;28;20295;-75
2021/08/10 00:49:18;;;;;;;2.97;2.30;;;15.50;99.90;;;;;;4995503;28;20276;-75
2021/08/10 00:51:45;;;;;;;2.53;1.93;;;15.30;99.90;;;;;;4995711;28;20176;-75
2021/08/10 00:54:11;;;;;;;2.90;2.57;;;15.30;99.90;;;;;;4995400;28;20278;-75
2021/08/10 00:56:37;;;;;;;2.13;1.93;;;15.30;99.90;;;;;;4994099;28;20263;-75
2021/08/10 00:59:02;;;;;;;2.87;2.10;;;15.30;99.90;;;;;;4995443;28;20180;-75
2021/08/10 01:01:28;;;;;;;2.87;2.47;;;15.20;99.90;;;;;;4995320;28;20188;-75
2021/08/10 01:03:54;;;;;;;4.70;2.27;;;15.20;99.90;;;;;;4993969;28;20578;-75
2021/08/10 01:06:53;;;;;;;4.97;2.33;;;15.30;99.90;;;;;;4995090;28;20183;-75
2021/08/10 01:09:39;;;;;;;3.43;2.30;;;15.20;99.90;;;;;;4975752;28;20545;-75
2021/08/10 01:12:14;;;;;;;3.13;2.70;;;15.20;99.90;;;;;;4995172;28;20168;-75
2021/08/10 01:15:01;;;;;;;3.47;2.80;;;15.20;99.90;;;;;;4995159;28;20338;-75
2021/08/10 01:17:41;;;;;;;2.60;2.37;;;15.20;99.90;;;;;;4993863;28;20178;-75
2021/08/10 01:20:29;;;;;;;3.93;2.00;;;15.10;99.90;;;;;;4993717;28;20179;-75
2021/08/10 01:22:56;;;;;;;3.17;2.10;;;15.20;99.90;;;;;;4988880;28;20714;-75
2021/08/10 01:25:55;;;;;;;2.43;2.23;;;15.30;99.90;;;;;;4992435;28;20603;-75
2021/08/10 01:28:42;;;;;;;2.43;2.23;;;15.20;99.90;;;;;;4991777;28;20215;-75
2021/08/10 01:31:07;;;;;;;4.63;2.50;;;15.20;99.90;;;;;;4994852;28;20194;-75
2021/08/10 01:33:37;;;;;;;2.97;2.43;;;15.20;99.90;;;;;;4994560;28;20219;-75
2021/08/10 01:36:04;;;;;;;2.80;2.03;;;15.10;99.90;;;;;;4994619;28;20160;-75
2021/08/10 01:38:33;;;;;;;3.47;2.10;;;15.10;99.90;;;;;;4994629;28;20178;-75
2021/08/10 01:41:00;;;;;;;2.33;2.00;;;15.10;99.90;;;;;;4994804;28;20217;-75
2021/08/10 01:43:33;;;;;;;3.03;2.27;;;15.00;99.90;;;;;;4982775;28;20200;-75
2021/08/10 01:45:59;;;;;;;2.97;2.10;;;15.10;99.90;;;;;;4994495;28;20206;-75
2021/08/10 01:48:26;;;;;;;3.87;2.03;;;15.10;99.90;;;;;;4994581;28;20638;-75
2021/08/10 01:50:53;;;;;;;2.20;2.00;;;15.10;99.90;;;;;;4993183;28;20206;-75
2021/08/10 01:53:20;;;;;;;2.43;1.97;;;15.10;99.90;;;;;;4994234;28;20196;-75
2021/08/10 01:55:47;;;;;;;7.27;2.33;;;15.10;99.90;;;;;;4994327;28;20255;-75
2021/08/10 01:58:14;;;;;;;2.30;2.10;;;15.00;99.90;;;;;;4994257;28;20175;-75
2021/08/10 02:00:44;;;;;;;2.57;2.20;;;14.90;99.90;;;;;;4994394;28;20187;-75
2021/08/10 02:03:13;;;;;;;3.97;2.37;;;15.00;99.90;;;;;;4990588;28;20208;-75
2021/08/10 02:05:41;;;;;;;5.87;2.30;;;15.00;99.90;;;;;;4972037;28;20662;-75
2021/08/10 02:08:09;;;;;;;4.13;2.20;;;14.90;99.90;;;;;;4981304;28;20294;-75
2021/08/10 02:10:35;;;;;;;2.57;2.20;;;15.00;99.90;;;;;;4978420;28;20262;-75
2021/08/10 02:13:03;;;;;;;5.17;2.20;;;14.90;99.90;;;;;;4978324;28;20202;-75
2021/08/10 02:15:29;;;;;;;2.17;2.00;;;14.90;99.90;;;;;;4978585;28;20167;-75
2021/08/10 02:17:55;;;;;;;2.20;2.03;;;14.90;99.90;;;;;;4993932;28;20180;-75
2021/08/10 02:20:21;;;;;;;2.63;2.20;;;14.90;99.90;;;;;;4994156;28;20210;-75
2021/08/10 02:22:48;;;;;;;2.70;2.50;;;14.80;99.90;;;;;;4988693;28;20212;-75
2021/08/10 02:25:19;;;;;;;2.97;2.27;;;14.80;99.90;;;;;;4989993;28;20175;-75
2021/08/10 02:27:51;;;;;;;2.57;2.00;;;14.60;99.90;;;;;;4994001;28;20568;-75
2021/08/10 02:30:21;;;;;;;2.90;2.33;;;14.40;99.90;;;;;;4993792;28;20593;-75
2021/08/10 02:32:49;;;;;;;3.20;2.10;;;14.40;99.90;;;;;;4993593;28;20223;-75
2021/08/10 02:35:21;;;;;;;3.40;2.40;;;14.40;99.90;;;;;;5009140;23;20227;-74
2021/08/10 02:37:49;;;;;;;4.10;2.50;;;14.40;99.90;;;;;;4993683;28;20185;-74
2021/08/10 02:40:18;;;;;;;3.20;2.10;;;15.90;99.90;;;;;;4993800;28;20176;-74
2021/08/10 02:42:48;;;;;;;8.70;2.60;;;14.50;99.90;;;;;;4993679;28;20185;-74
2021/08/10 02:45:14;;;;;;;2.57;2.20;;;14.50;99.90;;;;;;4992518;28;20211;-73
2021/08/10 02:47:47;;;;;;;2.57;2.33;;;14.50;99.90;;;;;;4995640;28;20202;-74
2021/08/10 02:50:12;;;;;;;3.03;2.40;;;14.50;99.90;;;;;;4997836;28;20168;-74
2021/08/10 02:52:38;;;;;;;2.23;1.77;;;14.40;99.90;;;;;;4996397;28;20557;-74
2021/08/10 02:55:05;;;;;;;2.33;2.13;;;14.40;99.90;;;;;;4997630;28;20237;-74
2021/08/10 02:57:38;;;;;;;4.40;2.40;;;14.30;99.90;;;;;;4997593;28;20175;-74
2021/08/10 03:00:10;;;;;;;2.50;2.30;;;14.30;99.90;;;;;;4997470;28;20184;-74
2021/08/10 03:02:41;;;;;;;4.93;2.20;;;14.30;99.90;;;;;;4998156;28;20532;-74
2021/08/10 03:05:11;;;;;;;4.63;2.10;;;14.40;99.90;;;;;;4997402;28;20203;-74
2021/08/10 03:07:40;;;;;;;2.10;1.90;;;14.40;99.90;;;;;;4996118;28;20203;-74
2021/08/10 03:10:08;;;;;;;6.30;2.13;;;14.40;99.90;;;;;;4997336;28;20659;-74
2021/08/10 03:12:44;;;;;;;3.50;2.13;;;14.30;99.90;;;;;;4997910;28;20261;-74
2021/08/10 03:15:10;;;;;;;2.30;2.13;;;14.30;99.90;;;;;;4997229;28;20191;-74
2021/08/10 03:17:38;;;;;;;2.47;2.23;;;14.20;99.90;;;;;;4997376;28;20561;-74
2021/08/10 03:20:06;;;;;;;2.33;1.90;;;14.20;99.90;;;;;;4997185;28;20184;-74
2021/08/10 03:22:34;;;;;;;2.13;2.00;;;14.20;99.90;;;;;;4994343;28;20203;-74
2021/08/10 03:25:02;;;;;;;2.53;2.07;;;14.30;99.90;;;;;;4991714;28;20199;-74
2021/08/10 03:27:28;;;;;;;3.17;1.90;;;14.30;99.90;;;;;;4996898;28;20275;-74
2021/08/10 03:29:55;;;;;;;2.27;2.10;;;14.20;99.90;;;;;;4997072;28;20271;-74
2021/08/10 03:32:22;;;;;;;3.57;2.40;;;14.20;99.90;;;;;;4996944;28;20168;-74
2021/08/10 03:34:47;;;;;;;2.60;2.40;;;14.10;99.90;;;;;;4996822;28;20215;-74
2021/08/10 03:37:15;;;;;;;2.63;2.40;;;14.10;99.90;;;;;;4996854;28;20180;-74
2021/08/10 03:39:42;;;;;;;2.83;2.40;;;14.10;99.90;;;;;;4996728;28;20184;-74
2021/08/10 03:42:08;;;;;;;2.77;2.23;;;14.00;99.90;;;;;;4996916;28;20191;-73
2021/08/10 03:44:41;;;;;;;3.17;2.40;;;14.10;99.90;;;;;;4996335;28;20196;-74
2021/08/10 03:47:08;;;;;;;2.30;2.10;;;14.10;99.90;;;;;;4984479;28;20285;-74
2021/08/10 03:49:34;;;;;;;4.47;2.90;;;14.00;99.90;;;;;;4996252;28;20219;-74
2021/08/10 03:52:00;;;;;;;2.60;2.37;;;14.00;99.90;;;;;;4976791;28;20170;-74
2021/08/10 03:54:26;;;;;;;3.00;2.73;;;13.90;99.90;;;;;;4990250;28;20560;-73
2021/08/10 03:56:54;;;;;;;2.70;2.40;;;13.90;99.90;;;;;;4994507;28;20195;-74
2021/08/10 03:59:21;;;;;;;4.57;2.23;;;13.90;99.90;;;;;;4993757;28;20203;-74
2021/08/10 04:01:51;;;;;;;2.90;2.33;;;13.90;99.90;;;;;;4975269;28;20181;-74
2021/08/10 04:04:18;;;;;;;3.17;2.37;;;13.90;99.90;;;;;;4966924;28;20200;-73
2021/08/10 04:06:44;;;;;;;2.57;2.37;;;13.90;99.90;;;;;;4981990;28;20279;-74
2021/08/10 04:09:11;;;;;;;2.57;2.37;;;13.80;99.90;;;;;;4985787;28;20179;-74
2021/08/10 04:11:40;;;;;;;2.50;2.13;;;13.80;99.90;;;;;;4995083;28;20180;-74
2021/08/10 04:14:09;;;;;;;3.03;2.20;;;13.80;99.90;;;;;;4981822;28;20255;-74
2021/08/10 04:17:02;;;;;;;3.73;2.50;;;13.80;99.90;;;;;;4978636;28;20173;-73
2021/08/10 04:19:34;;;;;;;2.73;2.53;;;13.80;99.90;;;;;;4981595;28;20408;-74
2021/08/10 04:21:59;;;;;;;4.33;2.60;;;13.90;99.90;;;;;;4978938;28;20183;-74
2021/08/10 04:24:25;;;;;;;3.57;2.67;;;13.80;99.90;;;;;;4976529;28;20192;-74
2021/08/10 04:26:51;;;;;;;3.63;2.70;;;13.80;99.90;;;;;;4977117;28;20211;-74
2021/08/10 04:29:17;;;;;;;3.30;2.53;;;13.80;99.90;;;;;;4975874;28;20239;-74
2021/08/10 04:31:43;;;;;;;4.50;2.80;;;13.70;99.90;;;;;;4975638;28;20184;-74
2021/08/10 04:34:09;;;;;;;7.03;3.00;;;13.70;99.90;;;;;;4980125;28;20212;-74
2021/08/10 04:36:35;;;;;;;2.90;2.60;;;13.70;99.90;;;;;;4978178;28;20175;-74
2021/08/10 04:39:01;;;;;;;2.20;2.10;;;13.70;99.90;;;;;;4975853;28;20238;-74
2021/08/10 04:41:27;;;;;;;3.30;2.97;;;13.70;99.90;;;;;;4975155;28;20177;-74
2021/08/10 04:43:53;;;;;;;6.27;2.63;;;13.70;99.90;;;;;;4977509;28;20196;-73
2021/08/10 04:46:20;;;;;;;3.77;2.63;;;13.70;99.90;;;;;;4979144;28;20251;-73
2021/08/10 04:48:46;;;;;;;3.53;2.50;;;13.70;99.90;;;;;;4976585;28;20652;-73
2021/08/10 04:51:15;;;;;;;6.63;2.93;;;13.70;99.90;;;;;;4977512;28;20251;-73
2021/08/10 04:53:41;;;;;;;3.50;2.70;;;13.70;99.90;;;;;;4975793;28;20743;-73
2021/08/10 04:56:07;;;;;;;3.03;2.60;;;13.70;99.90;;;;;;4975670;28;20179;-73
2021/08/10 04:58:33;;;;;;;3.07;2.77;;;13.70;99.90;;;;;;4975171;28;20259;-73
2021/08/10 05:00:58;;;;;;;4.33;2.53;;;13.70;99.90;;;;;;4977357;28;20184;-73
2021/08/10 05:03:24;;;;;;;4.37;2.90;;;13.80;99.90;;;;;;4978740;28;20194;-73
2021/08/10 05:05:50;;;;;;;4.27;2.60;;;13.80;99.90;;;;;;4976388;28;20177;-73
2021/08/10 05:08:16;;;;;;;4.30;2.50;;;13.80;99.90;;;;;;4977098;28;20196;-73
2021/08/10 05:10:42;;;;;;;3.47;2.67;;;13.90;99.90;;;;;;4975064;28;20219;-73
2021/08/10 05:13:09;;;;;;;2.73;2.53;;;13.90;99.90;;;;;;4974121;28;20181;-73
2021/08/10 05:15:36;;;;;;;2.50;2.30;;;13.90;99.90;;;;;;4974534;28;20280;-73
2021/08/10 05:18:02;;;;;;;2.83;2.53;;;13.90;99.90;;;;;;4977035;28;20316;-73
2021/08/10 05:20:27;;;;;;;4.63;2.60;;;14.00;99.90;;;;;;4977223;28;20742;-73
2021/08/10 05:22:53;;;;;;;4.83;2.77;;;14.00;99.90;;;;;;4976004;28;20192;-73
2021/08/10 05:25:18;;;;;;;3.20;2.93;;;14.00;99.90;;;;;;4976689;28;20335;-73
2021/08/10 05:27:44;;;;;;;4.30;2.40;;;14.00;99.90;;;;;;4975033;28;20209;-73
2021/08/10 05:30:10;;;;;;;3.57;2.70;;;14.10;99.90;;;;;;4975154;28;20255;-73
2021/08/10 05:32:36;;;;;;;3.17;2.60;;;14.10;99.90;;;;;;4974180;28;20177;-73
2021/08/10 05:35:02;;;;;;;5.07;2.73;;;14.20;99.90;;;;;;4976456;28;20638;-73
2021/08/10 05:37:28;;;;;;;3.00;2.70;;;14.30;99.90;;;;;;4977950;28;20187;-73
2021/08/10 05:39:53;;;;;;;4.60;2.80;;;14.30;99.90;;;;;;4973245;28;20543;-73
2021/08/10 05:42:19;;;;;;;2.97;2.67;;;14.30;99.90;;;;;;4974414;28;20182;-73
2021/08/10 05:44:44;;;;;;;2.80;2.60;;;14.40;99.90;;;;;;4993685;28;20227;-74
2021/08/10 05:47:10;;;;;;;4.20;2.87;;;14.40;99.90;;;;;;4994530;28;20278;-73
2021/08/10 05:49:36;;;;;;;3.63;2.23;;;14.50;99.90;;;;;;4988419;28;20182;-73
2021/08/10 05:52:03;;;;;;;3.53;2.70;;;14.60;99.90;;;;;;4994443;28;20639;-73
2021/08/10 05:54:28;;;;;;;2.40;2.20;;;14.60;99.90;;;;;;4994494;28;20196;-74
2021/08/10 05:56:54;;;;;;;3.90;2.80;;;14.70;99.90;;;;;;4977285;28;20207;-73
2021/08/10 05:59:19;;;;;;;5.27;2.30;;;14.80;99.90;;;;;;4987970;28;20205;-74
2021/08/10 06:01:45;;;;;;;5.63;2.60;;;14.90;99.90;;;;;;4994222;28;20645;-73
2021/08/10 06:04:11;;;;;;;3.03;2.53;;;15.00;99.90;;;;;;4962557;28;20737;-73
2021/08/10 06:06:36;;;;;;;3.83;2.63;;;15.00;99.90;;;;;;4971326;28;20713;-73
2021/08/10 06:09:04;;;;;;;2.80;2.50;;;15.10;99.90;;;;;;4973394;28;20224;-73
2021/08/10 06:11:30;;;;;;;5.33;2.57;;;15.20;99.90;;;;;;4976974;28;20176;-73
2021/08/10 06:13:56;;;;;;;3.23;2.93;;;15.20;99.90;;;;;;4975637;28;20200;-73
2021/08/10 06:16:21;;;;;;;2.90;2.67;;;15.20;99.90;;;;;;4975122;28;20243;-73
2021/08/10 06:18:47;;;;;;;3.40;2.70;;;15.30;99.90;;;;;;4974741;28;20265;-73
2021/08/10 06:21:13;;;;;;;2.97;2.77;;;15.30;99.90;;;;;;4976191;28;20243;-73
2021/08/10 06:23:39;;;;;;;3.47;2.73;;;15.40;99.90;;;;;;4978025;28;20637;-73
2021/08/10 06:26:04;;;;;;;2.37;1.90;;;15.30;99.90;;;;;;4975813;28;20247;-73
2021/08/10 06:28:30;;;;;;;2.57;2.30;;;15.20;99.90;;;;;;4976527;28;20287;-73
2021/08/10 06:30:56;;;;;;;2.87;2.63;;;15.20;99.90;;;;;;4975728;28;20205;-74
2021/08/10 06:33:22;;;;;;;3.30;2.30;;;15.20;99.90;;;;;;4986282;28;20191;-74
2021/08/10 06:35:47;;;;;;;4.23;2.60;;;15.30;99.90;;;;;;4993535;28;20195;-74
2021/08/10 06:38:13;;;;;;;3.03;2.73;;;15.40;99.90;;;;;;4993778;28;20700;-74
2021/08/10 06:40:39;;;;;;;3.03;2.60;;;15.60;99.90;;;;;;4993695;28;20655;-73
2021/08/10 06:43:04;;;;;;;3.33;2.57;;;15.80;99.90;;;;;;4993867;28;20593;-74
2021/08/10 06:45:30;;;;;;;2.73;2.37;;;15.80;99.90;;;;;;4992362;28;20203;-74
2021/08/10 06:47:56;;;;;;;9.10;2.40;;;15.90;99.90;;;;;;4993817;28;20335;-74
2021/08/10 06:50:22;;;;;;;2.93;2.40;;;16.00;99.90;;;;;;4993684;28;20180;-74
2021/08/10 06:52:47;;;;;;;4.77;2.60;;;16.00;99.90;;;;;;4993530;28;20246;-74
2021/08/10 06:55:14;;;;;;;4.10;2.73;;;16.10;99.90;;;;;;4993576;28;20202;-74
2021/08/10 06:57:40;;;;;;;4.47;2.53;;;16.10;99.90;;;;;;4993620;28;20216;-74
2021/08/10 07:00:07;;;;;;;3.83;3.47;;;16.10;99.90;;;;;;4992282;28;20185;-74
2021/08/10 07:02:33;;;;;;;4.97;2.73;;;16.10;99.90;;;;;;4993735;28;20234;-74
2021/08/10 07:04:59;;;;;;;5.93;3.40;;;16.10;99.90;;;;;;4993441;28;20599;-73
2021/08/10 07:07:24;;;;;;;4.93;3.50;;;16.10;99.90;;;;;;4993433;28;20212;-74
2021/08/10 07:09:50;;;;;;;4.87;3.37;;;16.30;99.90;;;;;;4993394;28;20182;-74
2021/08/10 07:12:15;;;;;;;3.73;3.37;;;16.30;99.90;;;;;;4993452;28;20178;-74
2021/08/10 07:14:42;;;;;;;6.43;4.20;;;16.40;99.90;;;;;;4993441;28;20223;-73
2021/08/10 07:17:07;;;;;;;7.17;3.73;;;16.60;99.90;;;;;;4966361;28;20556;-74
2021/08/10 07:19:33;;;;;;;8.13;3.60;;;16.80;99.90;;;;;;4971835;28;20188;-74
2021/08/10 07:21:59;;;;;;;13.47;4.43;;;16.90;99.90;;;;;;4984232;28;20207;-74
2021/08/10 07:24:24;;;;;;;8.23;4.43;;;16.90;99.90;;;;;;4992937;28;20203;-74
2021/08/10 07:26:52;;;;;;;6.50;4.00;;;16.90;99.90;;;;;;4984931;28;20293;-73
2021/08/10 07:29:18;;;;;;;6.10;3.77;;;17.10;99.90;;;;;;4982316;28;20187;-74
2021/08/10 07:31:43;;;;;;;6.80;3.70;;;17.20;99.90;;;;;;4976466;28;20192;-74
2021/08/10 07:34:09;;;;;;;5.20;2.87;;;17.30;99.90;;;;;;4980161;28;20218;-74
2021/08/10 07:36:35;;;;;;;7.87;3.70;;;17.40;99.90;;;;;;4984033;28;20206;-74
2021/08/10 07:39:02;;;;;;;8.27;3.50;;;17.40;99.90;;;;;;4996842;28;20261;-75
2021/08/10 07:41:27;;;;;;;3.57;3.27;;;17.50;99.90;;;;;;4996831;28;20563;-74
2021/08/10 07:43:53;;;;;;;4.30;3.50;;;17.50;99.90;;;;;;4996324;28;20285;-74
2021/08/10 07:46:19;;;;;;;4.23;2.87;;;17.50;99.90;;;;;;4988359;28;20272;-74
2021/08/10 07:48:45;;;;;;;7.40;3.57;;;17.60;99.90;;;;;;4977272;28;20807;-75
2021/08/10 07:51:10;;;;;;;9.00;4.10;;;17.70;99.90;;;;;;4980132;28;20226;-74
2021/08/10 07:53:36;;;;;;;4.23;2.57;;;17.80;99.90;;;;;;4984211;28;20231;-75
2021/08/10 07:56:03;;;;;;;5.97;3.60;;;17.80;99.90;;;;;;4994775;28;20694;-74
2021/08/10 07:58:28;;;;;;;5.87;3.30;;;17.90;99.90;;;;;;4990569;28;20675;-75
2021/08/10 08:00:54;;;;;;;5.80;3.47;;;18.20;99.90;;;;;;4987569;28;20195;-75
2021/08/10 08:03:20;;;;;;;5.73;3.43;;;18.30;99.90;;;;;;4996091;28;20241;-75
2021/08/10 08:05:46;;;;;;;3.50;2.80;;;18.50;99.90;;;;;;4986252;28;20183;-75
2021/08/10 08:08:11;;;;;;;3.30;2.57;;;18.50;99.90;;;;;;4990329;28;20200;-75
2021/08/10 08:10:37;;;;;;;4.30;2.93;;;18.50;99.90;;;;;;4988316;28;20669;-74
2021/08/10 08:13:03;;;;;;;3.40;3.00;;;18.60;99.90;;;;;;4996259;28;20180;-75
2021/08/10 08:15:28;;;;;;;4.43;2.70;;;18.60;99.90;;;;;;4989777;28;20278;-74
2021/08/10 08:17:54;;;;;;;3.13;2.73;;;18.90;99.90;;;;;;4981964;28;20648;-75
2021/08/10 08:20:19;;;;;;;5.30;2.90;;;19.10;99.90;;;;;;4987386;28;20659;-74
2021/08/10 08:22:45;;;;;;;2.60;2.40;;;19.10;99.90;;;;;;4983868;28;20184;-75
2021/08/10 08:25:11;;;;;;;3.17;2.43;;;19.20;99.90;;;;;;4982184;28;20199;-74
2021/08/10 08:27:38;;;;;;;3.10;2.80;;;19.10;99.90;;;;;;4980463;28;20208;-75
2021/08/10 08:30:05;;;;;;;3.40;2.33;;;19.20;99.90;;;;;;4977412;28;20199;-75
2021/08/10 08:32:31;;;;;;;2.80;2.43;;;19.20;99.90;;;;;;4986159;28;20226;-74
2021/08/10 08:34:57;;;;;;;4.23;2.70;;;19.40;99.90;;;;;;4998313;23;20232;-76
2021/08/10 08:37:22;;;;;;;4.83;2.77;;;19.60;99.90;;;;;;4995723;28;20223;-76
2021/08/10 08:39:48;;;;;;;3.20;2.47;;;19.80;99.90;;;;;;4994519;28;20175;-76
2021/08/10 08:42:14;;;;;;;2.80;2.33;;;19.90;99.90;;;;;;4995291;28;20176;-75
2021/08/10 08:44:40;;;;;;;3.83;2.70;;;19.90;99.90;;;;;;4994269;28;20183;-75
2021/08/10 08:47:07;;;;;;;3.50;2.77;;;20.00;99.90;;;;;;4993752;28;20324;-75
2021/08/10 08:49:35;;;;;;;4.13;2.87;;;20.20;99.90;;;;;;4993835;28;20195;-76
2021/08/10 08:52:05;;;;;;;3.87;3.20;;;20.30;99.90;;;;;;4994979;28;20247;-75
2021/08/10 08:54:34;;;;;;;4.03;2.70;;;20.30;99.90;;;;;;4995663;28;20176;-76
2021/08/10 08:56:59;;;;;;;3.57;2.93;;;20.40;99.90;;;;;;4995206;28;20176;-76
2021/08/10 08:59:26;;;;;;;3.73;2.70;;;20.60;99.90;;;;;;4991311;28;20275;-75
2021/08/10 09:01:52;;;;;;;2.87;2.67;;;20.60;99.90;;;;;;4994857;28;20184;-76
2021/08/10 09:04:19;;;;;;;4.30;2.97;;;20.70;99.90;;;;;;4992025;28;20234;-75
2021/08/10 09:06:45;;;;;;;3.13;2.80;;;20.80;99.90;;;;;;4976648;28;20235;-76
2021/08/10 09:09:21;;;;;;;2.57;2.37;;;20.80;99.90;;;;;;4993421;28;20172;-76
2021/08/10 09:11:49;;;;;;;3.17;2.37;;;20.80;99.90;;;;;;4991845;28;20179;-76
2021/08/10 09:14:15;;;;;;;7.07;2.40;;;21.10;99.90;;;;;;4995081;28;20699;-76
2021/08/10 09:17:01;;;;;;;2.97;2.20;;;21.10;99.90;;;;;;4995204;28;20279;-76
2021/08/10 09:20:06;;;;;;;2.80;2.60;;;21.30;99.90;;;;;;4995067;28;20180;-76
2021/08/10 09:22:33;;;;;;;4.20;2.73;;;21.30;99.90;;;;;;4933821;29;20188;-76
2021/08/10 09:25:01;;;;;;;3.93;2.70;;;21.50;99.90;;;;;;4934048;29;20202;-76
2021/08/10 09:27:27;;;;;;;3.20;2.90;;;21.70;99.90;;;;;;4953967;28;20222;-76
2021/08/10 09:29:53;;;;;;;2.93;2.67;;;21.70;99.90;;;;;;4993176;28;20546;-76
2021/08/10 09:32:19;;;;;;;3.23;2.80;;;21.80;99.90;;;;;;4992726;28;20797;-76
2021/08/10 09:34:45;;;;;;;3.77;2.87;;;22.00;99.90;;;;;;4993846;28;20655;-76
2021/08/10 09:37:15;;;;;;;3.37;2.50;;;22.00;99.90;;;;;;4992992;28;20188;-76
2021/08/10 09:39:41;;;;;;;4.30;2.40;;;22.20;99.90;;;;;;4993200;28;20207;-76
2021/08/10 09:42:12;;;;;;;3.60;2.33;;;22.20;99.90;;;;;;4993065;28;20606;-76
2021/08/10 09:44:56;;;;;;;3.43;2.47;;;22.30;99.90;;;;;;4978769;28;20176;-76
2021/08/10 09:47:31;;;;;;;4.20;2.40;;;22.40;99.90;;;;;;4986782;28;20674;-76
2021/08/10 09:49:58;;;;;;;2.73;2.53;;;22.40;99.90;;;;;;4977793;28;20180;-76
2021/08/10 09:52:34;;;;;;;2.83;2.50;;;22.40;99.90;;;;;;4990106;28;20176;-76
2021/08/10 09:55:14;;;;;;;3.20;2.57;;;22.40;99.90;;;;;;4984661;28;20202;-76
2021/08/10 09:57:44;;;;;;;3.10;2.53;;;22.50;99.90;;;;;;4985037;28;20195;-76
2021/08/10 10:00:11;;;;;;;2.37;2.10;;;22.50;99.90;;;;;;4984082;28;20220;-76
2021/08/10 10:02:36;;;;;;;3.20;2.40;;;22.50;99.90;;;;;;4986623;28;20186;-76
2021/08/10 10:05:03;;;;;;;2.90;2.20;;;22.60;99.90;;;;;;4983469;28;20199;-76
2021/08/10 10:07:29;;;;;;;2.40;2.20;;;22.80;99.90;;;;;;4987269;28;20658;-76
2021/08/10 10:09:54;;;;;;;2.37;1.90;;;23.00;99.90;;;;;;4987822;28;20316;-76
2021/08/10 10:12:22;;;;;;;3.70;2.50;;;23.10;99.90;;;;;;4981669;28;20263;-77
2021/08/10 10:14:49;;;;;;;2.83;2.40;;;23.30;99.90;;;;;;4984522;28;20183;-77
2021/08/10 10:17:15;;;;;;;3.20;2.30;;;23.20;99.90;;;;;;4976910;28;20177;-77
2021/08/10 10:19:44;;;;;;;3.20;1.90;;;23.30;99.90;;;;;;4988118;28;20208;-77
2021/08/10 10:22:22;;;;;;;2.17;1.90;;;23.10;99.90;;;;;;4988480;28;20176;-77
2021/08/10 10:24:57;;;;;;;3.40;2.20;;;23.40;99.90;;;;;;4987893;28;20191;-77
2021/08/10 10:27:26;;;;;;;2.27;2.00;;;23.60;99.90;;;;;;4984801;28;20225;-75
2021/08/10 10:29:56;;;;;;;2.07;1.90;;;23.50;99.90;;;;;;4989192;28;20214;-75
2021/08/10 10:32:24;;;;;;;2.50;2.30;;;23.60;99.90;;;;;;4984751;28;20176;-77
2021/08/10 10:34:50;;;;;;;2.87;2.50;;;;;;;;;;4983506;28;20180;-77
2021/08/10 10:37:22;;;;;;;2.87;2.10;;;23.70;99.90;;;;;;4987793;28;20187;-77
2021/08/10 10:39:55;;;;;;;2.70;2.10;;;23.80;99.90;;;;;;4983022;28;20662;-77
2021/08/10 10:42:22;;;;;;;2.90;2.30;;;23.90;99.90;;;;;;4994113;28;20673;-77
2021/08/10 10:44:52;;;;;;;2.23;1.90;;;24.00;99.90;;;;;;4980751;28;20231;-76
2021/08/10 10:47:38;;;;;;;2.50;1.80;;;24.00;99.90;;;;;;4997231;28;20199;-76
2021/08/10 10:50:05;;;;;;;2.40;1.80;;;24.00;99.90;;;;;;4982369;28;20180;-76
2021/08/10 10:52:34;;;;;;;2.20;1.80;;;24.10;99.90;;;;;;4985694;28;20180;-76
2021/08/10 10:55:00;;;;;;;2.50;1.70;;;24.40;99.90;;;;;;4980476;28;20204;-76
2021/08/10 10:57:31;;;;;;;2.00;1.87;;;24.40;99.90;;;;;;4986594;28;20186;-76
2021/08/10 11:00:03;;;;;;;2.13;1.90;;;24.50;99.90;;;;;;4979775;28;20211;-76
2021/08/10 11:02:29;;;;;;;2.37;1.83;;;24.60;99.90;;;;;;4985191;28;20191;-76
2021/08/10 11:05:12;;;;;;;2.27;1.97;;;24.70;99.90;;;;;;4990087;28;20212;-77
2021/08/10 11:07:43;;;;;;;2.10;1.90;;;24.60;99.90;;;;;;4988103;28;20543;-77
2021/08/10 11:10:21;;;;;;;2.47;1.97;;;24.60;99.90;;;;;;4987667;28;20176;-77
2021/08/10 11:12:47;;;;;;;2.50;2.00;;;24.70;99.90;;;;;;4993022;28;20180;-77
2021/08/10 11:15:14;;;;;;;3.70;2.20;;;24.70;99.90;;;;;;4993314;28;20682;-77
2021/08/10 11:17:40;;;;;;;2.67;2.10;;;24.90;99.90;;;;;;4986399;28;20179;-77
2021/08/10 11:20:26;;;;;;;2.07;1.70;;;;;;;;;;4984420;28;20177;-77
2021/08/10 11:23:21;;;;;;;2.57;2.00;;;24.90;99.90;;;;;;4984622;28;20591;-77
2021/08/10 11:25:52;;;;;;;2.27;1.90;;;25.20;99.90;;;;;;4980902;28;20196;-77
2021/08/10 11:28:38;;;;;;;2.40;2.00;;;25.30;99.90;;;;;;4991528;28;20222;-77
2021/08/10 11:31:06;;;;;;;2.17;1.97;;;25.30;99.90;;;;;;4995120;28;20182;-78
2021/08/10 11:33:35;;;;;;;4.40;2.07;;;25.40;99.90;;;;;;4994895;28;20172;-77
2021/08/10 11:36:12;;;;;;;2.23;1.90;;;25.50;99.90;;;;;;4995334;28;20591;-77
2021/08/10 11:38:43;;;;;;;3.57;2.10;;;25.60;99.90;;;;;;4995958;28;20207;-77
2021/08/10 11:41:36;;;;;;;3.63;2.30;;;25.60;99.90;;;;;;4996949;28;20263;-77
2021/08/10 11:44:20;;;;;;;2.90;1.90;;;25.70;99.90;;;;;;4992968;28;20561;-77
2021/08/10 11:46:47;;;;;;;3.67;1.80;;;25.80;99.90;;;;;;4996866;28;20270;-77
2021/08/10 11:49:19;;;;;;;3.07;2.10;;;25.80;99.90;;;;;;4995274;28;20183;-77
2021/08/10 11:51:46;;;;;;;2.07;1.80;;;25.80;99.90;;;;;;4992314;28;20266;-78
2021/08/10 11:54:17;;;;;;;2.33;2.13;;;25.80;99.90;;;;;;4996525;28;20167;-78
2021/08/10 11:56:54;;;;;;;2.40;2.20;;;26.00;99.90;;;;;;4985591;28;20196;-77
2021/08/10 11:59:24;;;;;;;1.90;1.70;;;26.10;99.90;;;;;;4995475;28;20179;-78
2021/08/10 12:01:50;;;;;;;1.90;1.80;;;26.20;99.90;;;;;;4996478;28;20259;-77
2021/08/10 12:04:23;;;;;;;4.67;1.80;;;26.20;99.90;;;;;;4993643;28;20181;-77
2021/08/10 12:06:51;;;;;;;2.30;2.10;;;26.30;99.90;;;;;;4994771;28;20203;-77
2021/08/10 12:09:22;;;;;;;5.13;2.30;;;26.10;99.90;;;;;;4993146;28;20175;-77
2021/08/10 12:11:57;;;;;;;2.53;1.80;;;26.20;99.90;;;;;;4986786;28;20183;-78
2021/08/10 12:14:25;;;;;;;3.17;1.90;;;26.30;99.90;;;;;;4995122;28;20176;-77
2021/08/10 12:17:10;;;;;;;2.23;2.03;;;26.40;99.90;;;;;;4991770;28;20307;-77
2021/08/10 12:19:38;;;;;;;2.30;1.57;;;26.40;99.90;;;;;;4991590;28;20262;-77
2021/08/10 12:22:06;;;;;;;4.00;2.13;;;26.40;99.90;;;;;;4994312;28;20634;-77
2021/08/10 12:24:39;;;;;;;3.23;1.90;;;26.40;99.90;;;;;;4993942;28;20192;-77
2021/08/10 12:27:06;;;;;;;2.60;1.90;;;26.50;99.90;;;;;;4992092;28;20217;-77
2021/08/10 12:29:36;;;;;;;2.60;2.00;;;26.40;99.90;;;;;;4991477;28;20179;-78
2021/08/10 12:32:03;;;;;;;3.30;2.20;;;26.40;99.90;;;;;;4991766;28;20554;-77
2021/08/10 12:34:35;;;;;;;2.07;1.87;;;26.50;99.90;;;;;;4994703;28;20186;-78
2021/08/10 12:37:01;;;;;;;3.77;2.07;;;26.50;99.90;;;;;;4994949;28;20665;-77
2021/08/10 12:39:31;;;;;;;2.73;2.13;;;26.60;99.90;;;;;;4994888;28;20655;-77
2021/08/10 12:42:00;;;;;;;2.30;2.10;;;26.70;99.90;;;;;;4994347;28;20214;-78
2021/08/10 12:44:27;;;;;;;3.80;2.10;;;26.70;99.90;;;;;;4994088;28;20187;-77
2021/08/10 12:46:57;;;;;;;3.27;2.10;;;26.80;99.90;;;;;;4995175;28;20202;-78
2021/08/10 12:49:42;;;;;;;2.90;2.20;;;26.90;99.90;;;;;;4993624;28;20180;-78
2021/08/10 12:52:13;;;;;;;2.13;1.77;;;27.00;99.90;;;;;;4995480;28;20182;-78
2021/08/10 12:54:51;;;;;;;2.60;2.40;;;27.10;99.90;;;;;;4992358;28;20176;-78